createdAt,value
2023-05-05T00:00:50.195Z,71.33
2023-05-05T00:01:50.241Z,71.44
2023-05-05T00:02:50.187Z,71.13
2023-05-05T00:03:50.334Z,71.23
2023-05-05T00:04:52.940Z,71.44
2023-05-05T00:05:50.173Z,71.13
2023-05-05T00:06:50.161Z,71.64
2023-05-05T00:07:50.127Z,70.05
2023-05-05T00:08:50.134Z,70.52
2023-05-05T00:09:50.080Z,70.12
2023-05-05T00:10:50.092Z,69.71
2023-05-05T00:11:50.089Z,69.61
2023-05-05T00:12:50.095Z,69.92
2023-05-05T00:13:50.090Z,69.71
2023-05-05T00:14:50.051Z,69.71
2023-05-05T00:15:50.059Z,69.41
2023-05-05T00:16:50.043Z,69.31
2023-05-05T00:17:50.049Z,69.61
2023-05-05T00:18:49.985Z,69.31
2023-05-05T00:19:49.988Z,69.61
2023-05-05T00:20:50.016Z,69.61
2023-05-05T00:21:49.974Z,69.81
2023-05-05T00:22:49.974Z,70.21
2023-05-05T00:23:49.992Z,71.33
2023-05-05T00:24:49.922Z,71.94
2023-05-05T00:25:49.951Z,71.23
2023-05-05T00:26:49.915Z,71.23
2023-05-05T00:27:50.231Z,71.16
2023-05-05T00:28:49.889Z,70.96
2023-05-05T00:29:49.877Z,71.57
2023-05-05T00:30:49.890Z,72.48
2023-05-05T00:31:49.848Z,72.38
2023-05-05T00:32:49.847Z,72.17
2023-05-05T00:33:49.872Z,72.28
2023-05-05T00:34:49.826Z,72.58
2023-05-05T00:35:49.822Z,72.08
2023-05-05T00:36:49.810Z,71.97
2023-05-05T00:37:49.823Z,72.08
2023-05-05T00:38:49.797Z,72.08
2023-05-05T00:39:49.755Z,72.48
2023-05-05T00:40:49.754Z,72.68
2023-05-05T00:41:49.753Z,72.68
2023-05-05T00:42:49.735Z,72.48
2023-05-05T00:43:49.752Z,72.17
2023-05-05T00:44:49.715Z,72.28
2023-05-05T00:45:49.709Z,72.17
2023-05-05T00:46:49.769Z,72.48
2023-05-05T00:47:49.710Z,72.38
2023-05-05T00:48:49.704Z,72.89
2023-05-05T00:49:49.662Z,73.60
2023-05-05T00:50:49.663Z,74.10
2023-05-05T00:51:49.629Z,73.93
2023-05-05T00:52:49.637Z,74.14
2023-05-05T00:53:49.617Z,74.24
2023-05-05T00:54:49.628Z,74.34
2023-05-05T00:55:49.613Z,74.34
2023-05-05T00:56:49.583Z,74.34
2023-05-05T00:57:49.596Z,74.04
2023-05-05T00:58:49.602Z,74.34
2023-05-05T00:59:49.548Z,74.44
2023-05-05T01:00:49.556Z,74.04
2023-05-05T01:01:49.596Z,73.93
2023-05-05T01:02:49.589Z,74.14
2023-05-05T01:03:49.576Z,74.44
2023-05-05T01:04:49.513Z,74.34
2023-05-05T01:05:49.501Z,74.48
2023-05-05T01:06:49.797Z,74.48
2023-05-05T01:07:49.460Z,73.97
2023-05-05T01:08:49.449Z,73.77
2023-05-05T01:09:53.566Z,74.38
2023-05-05T01:10:50.790Z,74.38
2023-05-05T01:11:49.433Z,74.88
2023-05-05T01:12:49.796Z,74.98
2023-05-05T01:13:49.403Z,75.09
2023-05-05T01:14:49.400Z,75.09
2023-05-05T01:15:49.400Z,75.39
2023-05-05T01:16:49.393Z,75.29
2023-05-05T01:17:49.443Z,75.59
2023-05-05T01:18:49.347Z,75.79
2023-05-05T01:19:49.392Z,75.90
2023-05-05T01:20:49.327Z,75.83
2023-05-05T01:21:49.331Z,75.73
2023-05-05T01:22:49.308Z,75.73
2023-05-05T01:23:49.593Z,75.83
2023-05-05T01:24:49.265Z,76.03
2023-05-05T01:25:49.266Z,76.24
2023-05-05T01:26:49.257Z,76.54
2023-05-05T01:27:49.252Z,76.64
2023-05-05T01:28:49.249Z,76.85
2023-05-05T01:29:49.222Z,76.75
2023-05-05T01:30:49.209Z,76.78
2023-05-05T01:31:49.257Z,76.37
2023-05-05T01:32:57.233Z,76.37
2023-05-05T01:33:57.200Z,76.68
2023-05-05T01:34:56.178Z,76.37
2023-05-05T01:35:57.198Z,76.98
2023-05-05T01:36:49.125Z,77.09
2023-05-05T01:37:57.654Z,76.78
2023-05-05T01:38:49.109Z,76.68
2023-05-05T01:39:49.123Z,76.78
2023-05-05T01:40:49.082Z,76.78
2023-05-05T01:41:49.080Z,76.88
2023-05-05T01:42:49.085Z,76.68
2023-05-05T01:43:49.061Z,76.58
2023-05-05T01:44:49.047Z,76.68
2023-05-05T01:45:49.062Z,76.78
2023-05-05T01:46:49.023Z,76.98
2023-05-05T01:47:49.057Z,77.19
2023-05-05T01:48:48.992Z,76.98
2023-05-05T01:49:49.005Z,76.88
2023-05-05T01:50:48.988Z,76.88
2023-05-05T01:51:48.980Z,77.09
2023-05-05T01:52:48.974Z,77.19
2023-05-05T01:53:48.942Z,77.39
2023-05-05T01:54:48.961Z,77.49
2023-05-05T01:55:49.029Z,77.39
2023-05-05T01:56:49.737Z,77.39
2023-05-05T01:57:48.917Z,77.59
2023-05-05T01:58:48.884Z,77.49
2023-05-05T01:59:48.909Z,77.73
2023-05-05T02:00:49.146Z,77.83
2023-05-05T02:01:48.877Z,77.94
2023-05-05T02:02:48.911Z,77.94
2023-05-05T02:03:48.820Z,77.94
2023-05-05T02:04:48.822Z,78.14
2023-05-05T02:05:48.821Z,78.14
2023-05-05T02:06:48.805Z,78.55
2023-05-05T02:07:48.783Z,78.75
2023-05-05T02:08:48.781Z,78.95
2023-05-05T02:09:48.766Z,78.64
2023-05-05T02:10:48.758Z,78.55
2023-05-05T02:11:48.746Z,78.34
2023-05-05T02:12:48.784Z,78.75
2023-05-05T02:13:48.773Z,79.25
2023-05-05T02:14:48.722Z,78.85
2023-05-05T02:15:48.718Z,78.85
2023-05-05T02:16:48.702Z,78.85
2023-05-05T02:17:48.693Z,78.95
2023-05-05T02:18:48.677Z,79.05
2023-05-05T02:19:48.651Z,79.25
2023-05-05T02:20:48.648Z,79.39
2023-05-05T02:21:48.672Z,79.39
2023-05-05T02:22:48.622Z,79.60
2023-05-05T02:23:48.616Z,79.80
2023-05-05T02:24:48.627Z,79.80
2023-05-05T02:25:48.589Z,80.11
2023-05-05T02:26:48.584Z,80.21
2023-05-05T02:27:48.612Z,80.21
2023-05-05T02:28:48.563Z,80.21
2023-05-05T02:29:48.538Z,80.31
2023-05-05T02:30:48.838Z,80.62
2023-05-05T02:31:48.590Z,80.72
2023-05-05T02:32:48.848Z,80.92
2023-05-05T02:33:48.504Z,80.92
2023-05-05T02:34:48.491Z,80.96
2023-05-05T02:35:48.483Z,81.16
2023-05-05T02:36:48.522Z,81.26
2023-05-05T02:37:48.485Z,81.26
2023-05-05T02:38:48.472Z,81.26
2023-05-05T02:39:48.450Z,81.46
2023-05-05T02:40:48.419Z,81.46
2023-05-05T02:41:48.426Z,81.77
2023-05-05T02:42:49.125Z,81.67
2023-05-05T02:43:48.411Z,81.57
2023-05-05T02:44:48.373Z,81.77
2023-05-05T02:45:48.392Z,81.87
2023-05-05T02:46:48.466Z,81.87
2023-05-05T02:47:48.429Z,81.98
2023-05-05T02:48:48.357Z,82.07
2023-05-05T02:49:48.339Z,81.77
2023-05-05T02:50:48.328Z,81.67
2023-05-05T02:51:48.299Z,81.46
2023-05-05T02:52:49.026Z,81.57
2023-05-05T02:53:48.301Z,81.26
2023-05-05T02:54:48.266Z,81.16
2023-05-05T02:55:48.257Z,80.96
2023-05-05T02:56:48.272Z,80.85
2023-05-05T02:57:48.224Z,80.65
2023-05-05T02:58:48.215Z,80.76
2023-05-05T02:59:48.196Z,80.45
2023-05-05T03:00:48.228Z,80.55
2023-05-05T03:01:48.215Z,80.35
2023-05-05T03:02:48.238Z,80.04
2023-05-05T03:03:48.338Z,80.65
2023-05-05T03:04:48.140Z,80.45
2023-05-05T03:05:48.139Z,79.63
2023-05-05T03:06:48.194Z,79.63
2023-05-05T03:07:48.113Z,79.19
2023-05-05T03:08:48.092Z,78.68
2023-05-05T03:09:48.090Z,78.68
2023-05-05T03:10:48.092Z,78.89
2023-05-05T03:11:48.083Z,79.09
2023-05-05T03:12:48.085Z,79.09
2023-05-05T03:13:48.030Z,78.99
2023-05-05T03:14:48.054Z,79.39
2023-05-05T03:15:48.071Z,79.19
2023-05-05T03:16:48.011Z,79.19
2023-05-05T03:17:48.057Z,79.29
2023-05-05T03:18:47.978Z,79.19
2023-05-05T03:19:47.981Z,79.09
2023-05-05T03:20:47.965Z,79.19
2023-05-05T03:21:47.980Z,79.19
2023-05-05T03:22:47.965Z,78.99
2023-05-05T03:23:47.943Z,79.09
2023-05-05T03:24:47.911Z,79.50
2023-05-05T03:25:47.903Z,79.60
2023-05-05T03:26:55.898Z,79.39
2023-05-05T03:27:47.881Z,79.60
2023-05-05T03:28:47.859Z,79.70
2023-05-05T03:29:47.884Z,79.80
2023-05-05T03:30:47.833Z,80.00
2023-05-05T03:31:48.616Z,79.80
2023-05-05T03:32:47.856Z,79.90
2023-05-05T03:33:47.809Z,79.80
2023-05-05T03:34:47.804Z,80.00
2023-05-05T03:35:47.841Z,80.00
2023-05-05T03:36:48.074Z,80.00
2023-05-05T03:37:47.779Z,80.21
2023-05-05T03:38:47.756Z,80.31
2023-05-05T03:39:47.733Z,80.41
2023-05-05T03:40:47.739Z,80.35
2023-05-05T03:41:47.761Z,80.55
2023-05-05T03:42:47.756Z,80.65
2023-05-05T03:43:47.689Z,80.76
2023-05-05T03:44:47.698Z,80.55
2023-05-05T03:45:47.795Z,80.76
2023-05-05T03:46:47.662Z,80.92
2023-05-05T03:47:47.954Z,81.16
2023-05-05T03:48:47.623Z,81.57
2023-05-05T03:49:47.634Z,81.57
2023-05-05T03:50:47.608Z,81.57
2023-05-05T03:51:47.622Z,81.77
2023-05-05T03:52:47.824Z,81.77
2023-05-05T03:53:47.582Z,81.98
2023-05-05T03:54:47.576Z,82.18
2023-05-05T03:55:47.573Z,82.28
2023-05-05T03:56:47.570Z,82.48
2023-05-05T03:57:47.532Z,82.89
2023-05-05T03:58:47.536Z,82.82
2023-05-05T03:59:47.532Z,82.93
2023-05-05T04:00:47.792Z,83.13
2023-05-05T04:01:47.502Z,83.23
2023-05-05T04:02:47.536Z,83.44
2023-05-05T04:03:47.549Z,83.74
2023-05-05T04:04:47.461Z,84.05
2023-05-05T04:05:47.476Z,84.05
2023-05-05T04:06:47.443Z,84.05
2023-05-05T04:07:47.431Z,84.29
2023-05-05T04:08:47.424Z,84.39
2023-05-05T04:09:47.398Z,84.29
2023-05-05T04:10:47.372Z,84.29
2023-05-05T04:11:47.418Z,84.50
2023-05-05T04:12:47.372Z,84.50
2023-05-05T04:13:47.362Z,84.29
2023-05-05T04:14:47.330Z,84.39
2023-05-05T04:15:47.380Z,84.50
2023-05-05T04:16:47.327Z,84.70
2023-05-05T04:17:47.344Z,84.80
2023-05-05T04:18:47.294Z,85.00
2023-05-05T04:19:47.280Z,85.11
2023-05-05T04:20:47.274Z,85.11
2023-05-05T04:21:47.287Z,85.11
2023-05-05T04:22:47.242Z,84.90
2023-05-05T04:23:47.223Z,84.90
2023-05-05T04:24:47.229Z,84.90
2023-05-05T04:25:47.226Z,85.00
2023-05-05T04:26:47.189Z,84.97
2023-05-05T04:27:47.247Z,84.76
2023-05-05T04:28:47.180Z,84.76
2023-05-05T04:29:47.165Z,84.97
2023-05-05T04:30:47.262Z,84.86
2023-05-05T04:31:47.342Z,84.86
2023-05-05T04:32:47.166Z,84.86
2023-05-05T04:33:47.113Z,84.86
2023-05-05T04:34:47.108Z,84.86
2023-05-05T04:35:47.088Z,84.86
2023-05-05T04:36:47.134Z,84.76
2023-05-05T04:37:47.080Z,84.72
2023-05-05T04:38:49.848Z,84.72
2023-05-05T04:39:47.050Z,84.82
2023-05-05T04:40:47.055Z,84.82
2023-05-05T04:41:47.052Z,84.62
2023-05-05T04:42:47.051Z,84.72
2023-05-05T04:43:47.001Z,84.62
2023-05-05T04:44:48.775Z,84.52
2023-05-05T04:45:46.994Z,84.38
2023-05-05T04:46:47.014Z,84.28
2023-05-05T04:47:47.039Z,84.48
2023-05-05T04:48:46.951Z,84.07
2023-05-05T04:49:46.918Z,83.83
2023-05-05T04:50:46.938Z,83.83
2023-05-05T04:51:46.946Z,83.53
2023-05-05T04:52:46.905Z,83.32
2023-05-05T04:53:46.901Z,83.22
2023-05-05T04:54:46.908Z,83.62
2023-05-05T04:55:46.860Z,84.03
2023-05-05T04:56:46.892Z,83.93
2023-05-05T04:57:46.859Z,84.13
2023-05-05T04:58:46.842Z,84.03
2023-05-05T04:59:46.825Z,83.89
2023-05-05T05:00:46.826Z,83.99
2023-05-05T05:01:46.855Z,84.20
2023-05-05T05:02:46.856Z,83.89
2023-05-05T05:03:46.914Z,83.99
2023-05-05T05:04:46.755Z,83.99
2023-05-05T05:05:47.478Z,83.75
2023-05-05T05:06:46.773Z,83.65
2023-05-05T05:07:46.728Z,83.54
2023-05-05T05:08:46.700Z,83.34
2023-05-05T05:09:46.749Z,83.04
2023-05-05T05:10:46.709Z,83.24
2023-05-05T05:11:46.685Z,83.34
2023-05-05T05:12:46.689Z,83.00
2023-05-05T05:13:46.668Z,83.10
2023-05-05T05:14:46.653Z,83.10
2023-05-05T05:15:46.761Z,82.80
2023-05-05T05:16:46.724Z,82.70
2023-05-05T05:17:46.652Z,82.39
2023-05-05T05:18:46.600Z,82.50
2023-05-05T05:19:46.605Z,82.70
2023-05-05T05:20:55.143Z,82.50
2023-05-05T05:21:46.639Z,82.39
2023-05-05T05:22:46.544Z,82.29
2023-05-05T05:23:46.542Z,82.29
2023-05-05T05:24:46.531Z,82.29
2023-05-05T05:25:46.539Z,82.50
2023-05-05T05:26:46.525Z,82.70
2023-05-05T05:27:50.160Z,82.50
2023-05-05T05:28:47.505Z,82.19
2023-05-05T05:29:46.517Z,82.15
2023-05-05T05:30:46.486Z,82.66
2023-05-05T05:31:49.295Z,82.29
2023-05-05T05:32:46.499Z,82.25
2023-05-05T05:33:46.422Z,82.15
2023-05-05T05:34:46.411Z,82.25
2023-05-05T05:35:46.427Z,82.15
2023-05-05T05:36:46.417Z,82.35
2023-05-05T05:37:46.396Z,82.52
2023-05-05T05:38:46.395Z,82.42
2023-05-05T05:39:46.360Z,82.21
2023-05-05T05:40:46.361Z,81.81
2023-05-05T05:41:46.369Z,81.91
2023-05-05T05:42:46.331Z,81.60
2023-05-05T05:43:46.322Z,81.37
2023-05-05T05:44:46.303Z,81.46
2023-05-05T05:45:46.338Z,81.16
2023-05-05T05:46:46.293Z,80.96
2023-05-05T05:47:46.316Z,80.96
2023-05-05T05:48:46.262Z,81.06
2023-05-05T05:49:46.281Z,81.06
2023-05-05T05:50:46.255Z,80.86
2023-05-05T05:51:46.241Z,80.96
2023-05-05T05:52:46.219Z,80.86
2023-05-05T05:53:46.207Z,80.52
2023-05-05T05:54:46.213Z,80.82
2023-05-05T05:55:46.183Z,80.72
2023-05-05T05:56:46.183Z,80.72
2023-05-05T05:57:46.154Z,81.02
2023-05-05T05:58:46.141Z,81.12
2023-05-05T05:59:46.145Z,81.02
2023-05-05T06:00:46.153Z,80.92
2023-05-05T06:01:46.132Z,80.62
2023-05-05T06:02:46.148Z,80.92
2023-05-05T06:03:46.350Z,81.02
2023-05-05T06:04:46.079Z,81.09
2023-05-05T06:05:46.086Z,80.78
2023-05-05T06:06:46.082Z,80.88
2023-05-05T06:07:46.058Z,81.39
2023-05-05T06:08:46.035Z,80.88
2023-05-05T06:09:46.050Z,80.78
2023-05-05T06:10:46.041Z,80.68
2023-05-05T06:11:45.995Z,80.88
2023-05-05T06:12:46.021Z,80.78
2023-05-05T06:13:45.971Z,80.78
2023-05-05T06:14:45.973Z,80.47
2023-05-05T06:15:46.757Z,80.27
2023-05-05T06:16:45.965Z,80.27
2023-05-05T06:17:45.938Z,80.27
2023-05-05T06:18:45.964Z,80.07
2023-05-05T06:19:46.789Z,79.77
2023-05-05T06:20:45.948Z,79.46
2023-05-05T06:21:45.932Z,79.67
2023-05-05T06:22:45.894Z,79.77
2023-05-05T06:23:45.874Z,79.97
2023-05-05T06:24:45.888Z,79.87
2023-05-05T06:25:45.852Z,80.07
2023-05-05T06:26:45.851Z,79.67
2023-05-05T06:27:45.820Z,79.02
2023-05-05T06:28:45.828Z,79.53
2023-05-05T06:29:45.813Z,79.63
2023-05-05T06:30:45.801Z,79.53
2023-05-05T06:31:45.892Z,79.22
2023-05-05T06:32:45.818Z,79.02
2023-05-05T06:33:45.781Z,79.33
2023-05-05T06:34:45.747Z,79.29
2023-05-05T06:35:45.741Z,78.78
2023-05-05T06:36:45.768Z,78.58
2023-05-05T06:37:45.728Z,77.87
2023-05-05T06:38:45.729Z,78.58
2023-05-05T06:39:45.704Z,78.08
2023-05-05T06:40:45.691Z,77.97
2023-05-05T06:41:45.704Z,77.67
2023-05-05T06:42:45.669Z,77.64
2023-05-05T06:43:45.647Z,77.23
2023-05-05T06:44:45.703Z,77.33
2023-05-05T06:45:45.656Z,77.33
2023-05-05T06:46:45.702Z,77.33
2023-05-05T06:47:45.696Z,77.23
2023-05-05T06:48:45.598Z,77.19
2023-05-05T06:49:45.573Z,77.60
2023-05-05T06:50:45.619Z,76.79
2023-05-05T06:51:45.562Z,76.79
2023-05-05T06:52:45.545Z,76.75
2023-05-05T06:53:45.557Z,76.95
2023-05-05T06:54:45.513Z,76.35
2023-05-05T06:55:45.513Z,76.01
2023-05-05T06:56:45.660Z,75.71
2023-05-05T06:57:45.492Z,75.60
2023-05-05T06:58:45.476Z,75.98
2023-05-05T06:59:45.466Z,75.37
2023-05-05T07:00:45.484Z,75.07
2023-05-05T07:01:45.446Z,75.47
2023-05-05T07:02:45.560Z,75.27
2023-05-05T07:03:45.671Z,74.87
2023-05-05T07:04:45.408Z,74.52
2023-05-05T07:05:45.402Z,74.43
2023-05-05T07:06:45.387Z,75.10
2023-05-05T07:07:45.368Z,74.69
2023-05-05T07:08:45.358Z,73.68
2023-05-05T07:09:45.339Z,73.38
2023-05-05T07:10:45.359Z,73.55
2023-05-05T07:11:45.309Z,73.65
2023-05-05T07:12:45.352Z,73.14
2023-05-05T07:13:45.330Z,72.74
2023-05-05T07:14:45.348Z,72.71
2023-05-05T07:15:52.412Z,73.01
2023-05-05T07:16:45.298Z,72.88
2023-05-05T07:17:45.323Z,72.07
2023-05-05T07:18:45.318Z,72.07
2023-05-05T07:19:45.379Z,71.47
2023-05-05T07:20:45.205Z,71.56
2023-05-05T07:21:45.247Z,71.36
2023-05-05T07:22:45.199Z,71.97
2023-05-05T07:23:45.212Z,71.47
2023-05-05T07:24:45.214Z,71.67
2023-05-05T07:25:45.183Z,71.43
2023-05-05T07:26:45.192Z,70.93
2023-05-05T07:27:45.190Z,71.13
2023-05-05T07:28:45.162Z,71.00
2023-05-05T07:29:45.214Z,71.50
2023-05-05T07:30:45.110Z,71.80
2023-05-05T07:31:45.159Z,71.50
2023-05-05T07:32:45.161Z,71.40
2023-05-05T07:33:45.098Z,71.80
2023-05-05T07:34:45.114Z,71.50
2023-05-05T07:35:45.081Z,71.30
2023-05-05T07:36:45.070Z,72.00
2023-05-05T07:37:45.047Z,71.50
2023-05-05T07:38:45.026Z,71.26
2023-05-05T07:39:45.034Z,71.80
2023-05-05T07:40:45.036Z,71.60
2023-05-05T07:41:45.031Z,71.40
2023-05-05T07:42:44.990Z,71.50
2023-05-05T07:43:44.980Z,71.60
2023-05-05T07:44:44.962Z,72.20
2023-05-05T07:45:44.972Z,71.60
2023-05-05T07:46:44.944Z,71.40
2023-05-05T07:47:44.967Z,71.60
2023-05-05T07:48:44.910Z,71.70
2023-05-05T07:49:44.915Z,71.80
2023-05-05T07:50:44.971Z,71.90
2023-05-05T07:51:44.888Z,72.10
2023-05-05T07:52:50.031Z,71.80
2023-05-05T07:53:45.860Z,71.50
2023-05-05T07:54:44.858Z,71.80
2023-05-05T07:55:44.865Z,71.56
2023-05-05T07:56:44.828Z,71.36
2023-05-05T07:57:44.813Z,71.26
2023-05-05T07:58:44.816Z,71.36
2023-05-05T07:59:44.792Z,71.47
2023-05-05T08:00:44.792Z,71.13
2023-05-05T08:01:44.784Z,70.83
2023-05-05T08:02:46.669Z,70.53
2023-05-05T08:03:44.851Z,71.33
2023-05-05T08:04:44.792Z,71.23
2023-05-05T08:05:44.762Z,70.89
2023-05-05T08:06:44.710Z,70.29
2023-05-05T08:07:44.699Z,70.39
2023-05-05T08:08:44.724Z,70.19
2023-05-05T08:09:44.664Z,70.59
2023-05-05T08:10:44.672Z,70.89
2023-05-05T08:11:44.688Z,70.59
2023-05-05T08:12:44.699Z,70.39
2023-05-05T08:13:44.726Z,70.09
2023-05-05T08:14:44.664Z,70.29
2023-05-05T08:15:45.000Z,70.70
2023-05-05T08:16:44.598Z,71.09
2023-05-05T08:17:44.667Z,71.13
2023-05-05T08:18:44.593Z,70.73
2023-05-05T08:19:44.580Z,70.53
2023-05-05T08:20:44.585Z,70.70
2023-05-05T08:21:44.544Z,71.09
2023-05-05T08:22:44.548Z,71.09
2023-05-05T08:23:44.543Z,70.63
2023-05-05T08:24:44.511Z,70.43
2023-05-05T08:25:44.520Z,70.32
2023-05-05T08:26:44.520Z,70.73
2023-05-05T08:27:44.488Z,71.03
2023-05-05T08:28:44.472Z,70.93
2023-05-05T08:29:44.492Z,70.93
2023-05-05T08:30:44.449Z,70.93
2023-05-05T08:31:44.471Z,71.00
2023-05-05T08:32:44.475Z,71.70
2023-05-05T08:33:44.415Z,71.09
2023-05-05T08:34:44.414Z,70.50
2023-05-05T08:35:44.408Z,70.50
2023-05-05T08:36:44.387Z,70.19
2023-05-05T08:37:44.378Z,70.09
2023-05-05T08:38:44.400Z,70.89
2023-05-05T08:39:44.345Z,70.66
2023-05-05T08:40:44.354Z,70.86
2023-05-05T08:41:44.360Z,70.46
2023-05-05T08:42:44.466Z,70.46
2023-05-05T08:43:44.311Z,69.92
2023-05-05T08:44:44.320Z,69.56
2023-05-05T08:45:44.294Z,70.19
2023-05-05T08:46:44.302Z,70.70
2023-05-05T08:47:44.292Z,71.16
2023-05-05T08:48:44.255Z,70.66
2023-05-05T08:49:44.236Z,70.43
2023-05-05T08:50:44.255Z,70.32
2023-05-05T08:51:44.226Z,70.63
2023-05-05T08:52:44.843Z,70.32
2023-05-05T08:53:44.217Z,69.79
2023-05-05T08:54:44.190Z,69.79
2023-05-05T08:55:44.198Z,69.26
2023-05-05T08:56:44.195Z,69.35
2023-05-05T08:57:44.155Z,68.85
2023-05-05T08:58:44.130Z,68.85
2023-05-05T08:59:44.139Z,68.79
2023-05-05T09:00:44.137Z,69.22
2023-05-05T09:01:44.152Z,69.42
2023-05-05T09:02:52.734Z,70.53
2023-05-05T09:03:44.101Z,70.09
2023-05-05T09:04:44.126Z,69.09
2023-05-05T09:05:44.076Z,68.79
2023-05-05T09:06:44.059Z,69.29
2023-05-05T09:07:52.062Z,68.76
2023-05-05T09:08:44.020Z,68.85
2023-05-05T09:09:44.010Z,68.76
2023-05-05T09:10:44.030Z,68.35
2023-05-05T09:11:44.007Z,68.12
2023-05-05T09:12:44.020Z,68.92
2023-05-05T09:13:43.988Z,68.52
2023-05-05T09:14:43.984Z,68.42
2023-05-05T09:15:44.013Z,69.23
2023-05-05T09:16:43.978Z,68.05
2023-05-05T09:17:43.959Z,68.15
2023-05-05T09:18:43.925Z,68.65
2023-05-05T09:19:43.894Z,68.39
2023-05-05T09:20:43.889Z,68.79
2023-05-05T09:21:43.888Z,69.35
2023-05-05T09:22:43.917Z,69.06
2023-05-05T09:23:43.849Z,67.96
2023-05-05T09:24:43.900Z,68.05
2023-05-05T09:25:43.824Z,68.96
2023-05-05T09:26:43.827Z,68.96
2023-05-05T09:27:43.830Z,68.55
2023-05-05T09:28:43.804Z,68.32
2023-05-05T09:29:43.808Z,67.72
2023-05-05T09:30:43.859Z,67.22
2023-05-05T09:31:43.755Z,66.82
2023-05-05T09:32:43.782Z,67.02
2023-05-05T09:33:43.759Z,67.05
2023-05-05T09:34:43.761Z,67.15
2023-05-05T09:35:43.720Z,67.85
2023-05-05T09:36:43.727Z,68.15
2023-05-05T09:37:43.705Z,67.15
2023-05-05T09:38:43.709Z,67.05
2023-05-05T09:39:43.689Z,67.32
2023-05-05T09:40:43.703Z,67.02
2023-05-05T09:41:43.669Z,66.42
2023-05-05T09:42:43.663Z,66.52
2023-05-05T09:43:44.635Z,66.05
2023-05-05T09:44:43.662Z,66.45
2023-05-05T09:45:43.616Z,66.75
2023-05-05T09:46:43.633Z,67.05
2023-05-05T09:47:43.620Z,66.85
2023-05-05T09:48:43.575Z,66.65
2023-05-05T09:49:43.563Z,66.15
2023-05-05T09:50:43.545Z,66.15
2023-05-05T09:51:43.559Z,66.65
2023-05-05T09:52:43.526Z,66.65
2023-05-05T09:53:43.504Z,66.15
2023-05-05T09:54:43.554Z,65.35
2023-05-05T09:55:43.516Z,65.65
2023-05-05T09:56:43.470Z,65.98
2023-05-05T09:57:43.476Z,65.88
2023-05-05T09:58:43.484Z,66.18
2023-05-05T09:59:43.441Z,66.11
2023-05-05T10:00:43.450Z,66.71
2023-05-05T10:01:43.496Z,66.31
2023-05-05T10:02:43.479Z,66.31
2023-05-05T10:03:44.234Z,67.11
2023-05-05T10:04:43.421Z,66.41
2023-05-05T10:05:43.398Z,66.88
2023-05-05T10:06:43.354Z,67.18
2023-05-05T10:07:43.345Z,66.38
2023-05-05T10:08:43.333Z,67.18
2023-05-05T10:09:43.352Z,65.98
2023-05-05T10:10:43.361Z,65.98
2023-05-05T10:11:43.329Z,65.78
2023-05-05T10:12:43.363Z,65.68
2023-05-05T10:13:43.306Z,65.58
2023-05-05T10:14:45.157Z,65.28
2023-05-05T10:15:43.282Z,65.05
2023-05-05T10:16:43.293Z,65.15
2023-05-05T10:17:53.960Z,65.05
2023-05-05T10:18:44.272Z,64.62
2023-05-05T10:19:43.241Z,64.81
2023-05-05T10:20:43.217Z,64.18
2023-05-05T10:21:43.216Z,63.58
2023-05-05T10:22:43.173Z,63.35
2023-05-05T10:23:44.376Z,62.65
2023-05-05T10:24:43.152Z,62.45
2023-05-05T10:25:43.192Z,63.45
2023-05-05T10:26:43.133Z,63.56
2023-05-05T10:27:43.115Z,63.25
2023-05-05T10:28:43.124Z,63.02
2023-05-05T10:29:43.107Z,63.72
2023-05-05T10:30:43.120Z,63.02
2023-05-05T10:31:43.170Z,62.95
2023-05-05T10:33:43.350Z,63.62
2023-05-05T10:34:43.160Z,63.62
2023-05-05T10:35:43.049Z,62.82
2023-05-05T10:36:43.040Z,63.22
2023-05-05T10:37:43.017Z,64.12
2023-05-05T10:38:43.001Z,62.99
2023-05-05T10:39:43.010Z,63.89
2023-05-05T10:40:42.995Z,61.87
2023-05-05T10:41:43.235Z,61.57
2023-05-05T10:42:42.983Z,61.87
2023-05-05T10:43:42.937Z,60.86
2023-05-05T10:44:42.951Z,60.86
2023-05-05T10:45:43.160Z,60.83
2023-05-05T10:46:42.967Z,61.54
2023-05-05T10:47:42.908Z,61.76
2023-05-05T10:48:42.945Z,61.66
2023-05-05T10:49:42.885Z,62.29
2023-05-05T10:50:42.872Z,61.49
2023-05-05T10:51:42.853Z,62.32
2023-05-05T10:52:42.839Z,62.62
2023-05-05T10:53:42.875Z,62.09
2023-05-05T10:54:42.829Z,62.19
2023-05-05T10:55:42.813Z,62.39
2023-05-05T10:56:42.820Z,61.99
2023-05-05T10:57:42.804Z,61.36
2023-05-05T11:08:31.691Z,57.68
2023-05-05T11:09:31.660Z,59.01
2023-05-05T11:10:31.666Z,59.91
2023-05-05T11:11:31.626Z,59.64
2023-05-05T11:12:31.750Z,59.11
2023-05-05T11:13:31.705Z,59.78
2023-05-05T11:14:31.591Z,58.68
2023-05-05T11:15:31.729Z,58.28
2023-05-05T11:16:31.622Z,58.51
2023-05-05T11:17:31.659Z,58.51
2023-05-05T11:18:31.540Z,59.70
2023-05-05T11:19:31.546Z,58.51
2023-05-05T11:20:31.538Z,59.38
2023-05-05T11:21:31.638Z,59.38
2023-05-05T11:22:31.508Z,58.48
2023-05-05T11:23:31.513Z,58.31
2023-05-05T11:24:31.519Z,58.71
2023-05-05T11:25:31.542Z,58.94
2023-05-05T11:26:31.502Z,59.34
2023-05-05T11:27:31.455Z,60.03
2023-05-05T11:28:31.528Z,60.06
2023-05-05T11:29:31.492Z,59.77
2023-05-05T11:30:31.497Z,59.66
2023-05-05T11:31:31.425Z,60.14
2023-05-05T11:32:31.475Z,60.16
2023-05-05T11:33:31.581Z,60.83
2023-05-05T11:34:31.386Z,61.04
2023-05-05T11:35:31.391Z,59.94
2023-05-05T11:36:31.368Z,60.96
2023-05-05T11:37:31.408Z,60.29
2023-05-05T11:38:31.376Z,62.82
2023-05-05T11:39:31.323Z,62.02
2023-05-05T11:40:31.382Z,59.58
2023-05-05T11:41:31.338Z,59.99
2023-05-05T11:42:31.671Z,61.55
2023-05-05T11:43:31.308Z,62.49
2023-05-05T11:44:31.262Z,63.02
2023-05-05T11:45:31.303Z,63.56
2023-05-05T11:46:31.269Z,63.99
2023-05-05T11:47:31.296Z,64.52
2023-05-05T11:48:31.217Z,65.26
2023-05-05T11:49:31.223Z,65.99
2023-05-05T11:50:31.269Z,66.19
2023-05-05T11:51:31.217Z,66.50
2023-05-05T11:52:31.188Z,66.80
2023-05-05T11:53:31.171Z,66.30
2023-05-05T11:54:31.204Z,66.83
2023-05-05T11:55:31.162Z,66.83
2023-05-05T11:56:31.160Z,66.53
2023-05-05T11:57:31.123Z,66.63
2023-05-05T11:58:31.130Z,66.60
2023-05-05T11:59:31.128Z,66.39
2023-05-05T12:00:31.094Z,66.60
2023-05-05T12:01:31.103Z,66.39
2023-05-05T12:02:31.248Z,66.50
2023-05-05T12:03:31.372Z,67.40
2023-05-05T12:04:31.101Z,67.91
2023-05-05T12:05:31.050Z,67.71
2023-05-05T12:06:31.036Z,67.30
2023-05-05T12:07:31.037Z,67.88
2023-05-05T12:08:30.998Z,67.47
2023-05-05T12:09:30.996Z,67.57
2023-05-05T12:10:30.990Z,67.54
2023-05-05T12:11:31.100Z,68.44
2023-05-05T12:12:31.044Z,66.60
2023-05-05T12:13:32.693Z,66.80
2023-05-05T12:14:30.974Z,66.10
2023-05-05T12:15:30.935Z,66.60
2023-05-05T12:16:36.009Z,66.47
2023-05-05T12:17:30.923Z,67.88
2023-05-05T12:18:30.952Z,66.44
2023-05-05T12:19:30.872Z,66.61
2023-05-05T12:20:30.869Z,65.41
2023-05-05T12:21:30.905Z,65.50
2023-05-05T12:22:30.906Z,65.00
2023-05-05T12:23:30.890Z,64.57
2023-05-05T12:24:30.851Z,64.27
2023-05-05T12:25:30.893Z,64.57
2023-05-05T12:26:30.804Z,64.27
2023-05-05T12:27:30.828Z,64.07
2023-05-05T12:28:30.773Z,64.47
2023-05-05T12:29:31.090Z,64.97
2023-05-05T12:30:30.798Z,64.54
2023-05-05T12:31:30.814Z,63.93
2023-05-05T12:32:30.794Z,64.04
2023-05-05T12:33:30.755Z,64.54
2023-05-05T12:39:25.988Z,66.17
2023-05-05T12:40:25.941Z,66.17
2023-05-05T12:41:25.925Z,66.58
2023-05-05T12:42:25.886Z,66.38
2023-05-05T12:43:25.915Z,66.67
2023-05-05T12:44:27.687Z,67.38
2023-05-05T12:45:25.869Z,66.98
2023-05-05T12:46:25.912Z,67.08
2023-05-05T12:47:25.869Z,67.48
2023-05-05T12:48:25.822Z,67.51
2023-05-05T12:49:25.855Z,68.21
2023-05-05T12:50:25.834Z,67.98
2023-05-05T12:51:25.839Z,67.88
2023-05-05T12:52:25.851Z,67.08
2023-05-05T12:53:25.780Z,68.02
2023-05-05T12:54:25.763Z,68.18
2023-05-05T12:55:25.816Z,68.79
2023-05-05T12:56:25.781Z,68.79
2023-05-05T12:59:58.250Z,67.35
2023-05-05T13:04:55.142Z,67.18
2023-05-05T13:05:54.869Z,67.88
2023-05-05T13:06:56.658Z,67.58
2023-05-05T13:07:57.625Z,67.38
2023-05-05T13:08:55.045Z,67.68
2023-05-05T13:09:54.852Z,67.05
2023-05-05T13:10:54.797Z,68.29
2023-05-05T13:11:54.839Z,67.98
2023-05-05T13:12:54.918Z,69.19
2023-05-05T13:13:54.763Z,69.56
2023-05-05T13:14:54.778Z,67.35